Time;durP1;ratioP1;P1;durP2;ratioP2;P2;SDS_P1;SDS_P2;PMS_P1;PMS_P2;Temp;Humidity;BMP_temperature;BMP_pressure;BME280_temperature;BME280_humidity;BME280_pressure;Samples;Min_cycle;Max_cycle;Signal;HPM_P1;HPM_P2
2023/05/03 00:01:28;;;;;;;57.40;2.20;;;;;;;;;;5071196;28;21032;-68
2023/05/03 00:03:55;;;;;;;57.33;2.30;;;;;;;;;;5051734;28;20450;-68
2023/05/03 00:06:22;;;;;;;57.47;2.40;;;;;;;;;;5051405;28;20492;-68
2023/05/03 00:08:50;;;;;;;57.40;2.23;;;;;;;;;;5051102;28;20840;-67
2023/05/03 00:11:18;;;;;;;57.27;2.30;;;;;;;;;;5055089;28;20467;-68
2023/05/03 00:13:45;;;;;;;57.30;2.33;;;;;;;;;;5055265;28;20980;-68
2023/05/03 00:16:12;;;;;;;57.97;3.17;;;;;;;;;;5055370;28;20454;-68
2023/05/03 00:18:39;;;;;;;58.67;3.83;;;;;;;;;;5054978;28;20824;-68
2023/05/03 00:21:07;;;;;;;57.37;2.30;;;;;;;;;;5055037;28;20488;-68
2023/05/03 00:23:34;;;;;;;56.47;2.10;;;;;;;;;;5055133;28;20464;-68
2023/05/03 00:26:01;;;;;;;57.07;3.00;;;;;;;;;;5055240;28;20463;-68
2023/05/03 00:28:29;;;;;;;57.13;2.10;;;;;;;;;;5054831;28;20530;-67
2023/05/03 00:30:56;;;;;;;57.33;2.40;;;;;;;;;;5055017;28;20464;-67
2023/05/03 00:33:24;;;;;;;57.57;2.40;;;;;;;;;;5054842;28;20956;-68
2023/05/03 00:35:51;;;;;;;57.17;2.33;;;;;;;;;;5054771;28;20505;-68
2023/05/03 00:38:18;;;;;;;57.50;2.60;;;;;;;;;;5054664;28;20956;-68
2023/05/03 00:40:45;;;;;;;57.33;2.40;;;;;;;;;;5054610;28;20578;-67
2023/05/03 00:43:13;;;;;;;57.60;2.50;;;;;;;;;;5054733;28;20964;-68
2023/05/03 00:45:44;;;;;;;57.70;2.50;;;;;;;;;;5054818;28;20818;-68
2023/05/03 00:48:13;;;;;;;57.47;2.70;;;;;;;;;;5054654;28;20923;-67
2023/05/03 00:50:40;;;;;;;59.37;2.90;;;;;;;;;;5054199;28;20563;-67
2023/05/03 00:53:07;;;;;;;57.47;2.40;;;;;;;;;;5054506;28;20448;-68
2023/05/03 00:55:34;;;;;;;57.63;2.77;;;;;;;;;;5054505;28;20444;-67
2023/05/03 00:58:01;;;;;;;57.37;2.50;;;;;;;;;;5054324;28;20455;-67
2023/05/03 01:00:28;;;;;;;57.40;2.30;;;;;;;;;;5054132;28;20468;-68
2023/05/03 01:02:57;;;;;;;57.60;2.23;;;;;;;;;;5054483;28;20448;-68
2023/05/03 01:05:24;;;;;;;57.53;2.30;;;;;;;;;;5054190;28;20448;-67
2023/05/03 01:07:56;;;;;;;57.27;2.37;;;;;;;;;;5054497;28;20444;-67
2023/05/03 01:10:27;;;;;;;57.37;2.37;;;;;;;;;;5052522;28;20470;-67
2023/05/03 01:12:56;;;;;;;57.40;2.40;;;;;;;;;;5054151;28;20977;-67
2023/05/03 01:15:29;;;;;;;57.17;2.33;;;;;;;;;;5054368;28;20773;-67
2023/05/03 01:17:58;;;;;;;57.37;2.30;;;;;;;;;;5053986;28;20539;-68
2023/05/03 01:20:29;;;;;;;57.30;2.37;;;;;;;;;;5053502;28;20466;-68
2023/05/03 01:23:01;;;;;;;57.17;2.50;;;;;;;;;;5053566;28;20460;-67
2023/05/03 01:25:29;;;;;;;57.27;2.60;;;;;;;;;;5053853;28;21119;-67
2023/05/03 01:27:56;;;;;;;57.17;2.30;;;;;;;;;;5053984;28;20487;-67
2023/05/03 01:30:26;;;;;;;57.23;2.47;;;;;;;;;;5053539;28;20852;-67
2023/05/03 01:32:56;;;;;;;56.40;2.40;;;;;;;;;;5053893;28;20539;-68
2023/05/03 01:35:27;;;;;;;57.33;2.50;;;;;;;;;;5053740;28;20801;-67
2023/05/03 01:37:55;;;;;;;58.10;3.30;;;;;;;;;;5053671;28;20452;-67
2023/05/03 01:40:23;;;;;;;56.50;2.27;;;;;;;;;;5053711;28;20472;-68
2023/05/03 01:42:52;;;;;;;57.70;3.30;;;;;;;;;;5053785;28;20447;-67
2023/05/03 01:45:20;;;;;;;57.17;2.40;;;;;;;;;;5053636;28;20452;-67
2023/05/03 01:47:47;;;;;;;56.97;2.10;;;;;;;;;;5053591;28;20448;-68
2023/05/03 01:50:14;;;;;;;57.13;2.40;;;;;;;;;;5052976;28;20472;-67
2023/05/03 01:52:41;;;;;;;58.33;2.60;;;;;;;;;;5053668;28;20789;-68
2023/05/03 01:55:08;;;;;;;56.57;2.37;;;;;;;;;;5053625;28;20448;-67
2023/05/03 01:57:35;;;;;;;57.07;2.30;;;;;;;;;;5053537;28;20449;-67
2023/05/03 02:00:05;;;;;;;57.40;2.37;;;;;;;;;;5052841;28;20487;-67
2023/05/03 02:02:32;;;;;;;57.07;2.40;;;;;;;;;;5053171;28;20511;-68
2023/05/03 02:05:00;;;;;;;57.70;2.57;;;;;;;;;;5053067;28;20455;-68
2023/05/03 02:07:27;;;;;;;57.40;2.60;;;;;;;;;;5053380;28;20977;-67
2023/05/03 02:09:54;;;;;;;57.40;2.83;;;;;;;;;;5052765;28;20543;-67
2023/05/03 02:12:21;;;;;;;56.57;2.47;;;;;;;;;;5053087;28;20451;-67
2023/05/03 02:14:48;;;;;;;57.77;2.53;;;;;;;;;;5053063;28;20452;-67
2023/05/03 02:17:17;;;;;;;57.47;2.50;;;;;;;;;;5052869;28;20459;-67
2023/05/03 02:19:44;;;;;;;57.17;2.50;;;;;;;;;;5052449;28;20485;-67
2023/05/03 02:22:12;;;;;;;57.17;2.40;;;;;;;;;;5053014;28;20483;-67
2023/05/03 02:24:39;;;;;;;56.97;2.40;;;;;;;;;;5053024;28;20474;-67
2023/05/03 02:27:06;;;;;;;57.87;2.90;;;;;;;;;;5052751;28;20450;-67
2023/05/03 02:29:33;;;;;;;57.80;2.83;;;;;;;;;;5052323;28;20996;-67
2023/05/03 02:32:00;;;;;;;57.50;2.40;;;;;;;;;;5052455;28;20440;-67
2023/05/03 02:34:28;;;;;;;57.50;2.87;;;;;;;;;;5051900;28;20448;-67
2023/05/03 02:36:55;;;;;;;57.23;2.43;;;;;;;;;;5052496;28;20452;-67
2023/05/03 02:39:22;;;;;;;56.93;2.50;;;;;;;;;;5058102;28;20467;-67
2023/05/03 02:41:50;;;;;;;56.70;2.53;;;;;;;;;;5072516;28;20490;-67
2023/05/03 02:44:17;;;;;;;57.07;2.30;;;;;;;;;;5072388;28;20453;-67
2023/05/03 02:46:44;;;;;;;57.07;2.50;;;;;;;;;;5072324;28;20456;-67
2023/05/03 02:49:11;;;;;;;57.17;2.20;;;;;;;;;;5072272;28;20454;-68
2023/05/03 02:51:40;;;;;;;57.23;2.30;;;;;;;;;;5072218;28;20454;-68
2023/05/03 02:54:07;;;;;;;56.97;2.30;;;;;;;;;;5072382;28;20447;-68
2023/05/03 02:56:34;;;;;;;56.87;2.20;;;;;;;;;;5072324;28;20834;-68
2023/05/03 02:59:01;;;;;;;57.87;3.20;;;;;;;;;;5071640;28;20454;-68
2023/05/03 03:01:28;;;;;;;56.47;2.07;;;;;;;;;;5071910;28;20479;-68
2023/05/03 03:03:55;;;;;;;60.47;4.63;;;;;;;;;;5072062;28;20958;-68
2023/05/03 03:06:23;;;;;;;57.37;2.20;;;;;;;;;;5072170;28;20452;-68
2023/05/03 03:08:51;;;;;;;57.60;2.60;;;;;;;;;;5071655;28;20459;-68
2023/05/03 03:11:18;;;;;;;57.13;2.50;;;;;;;;;;5071909;28;20466;-68
2023/05/03 03:13:45;;;;;;;57.17;2.37;;;;;;;;;;5071875;28;20447;-68
2023/05/03 03:16:13;;;;;;;56.97;2.60;;;;;;;;;;5072132;28;20470;-68
2023/05/03 03:18:40;;;;;;;57.80;2.70;;;;;;;;;;5071701;28;20448;-68
2023/05/03 03:21:07;;;;;;;57.30;2.50;;;;;;;;;;5071787;28;20467;-68
2023/05/03 03:23:34;;;;;;;57.37;2.47;;;;;;;;;;5071792;28;20447;-67
2023/05/03 03:26:03;;;;;;;57.30;2.63;;;;;;;;;;5071793;28;20451;-68
2023/05/03 03:28:30;;;;;;;57.47;2.50;;;;;;;;;;5071520;28;20936;-68
2023/05/03 03:30:57;;;;;;;57.13;2.50;;;;;;;;;;5071725;28;20489;-68
2023/05/03 03:33:25;;;;;;;57.40;2.40;;;;;;;;;;5071964;28;20439;-67
2023/05/03 03:35:52;;;;;;;57.50;2.73;;;;;;;;;;5071826;28;20935;-68
2023/05/03 03:38:19;;;;;;;57.57;2.50;;;;;;;;;;5071665;28;20447;-68
2023/05/03 03:40:46;;;;;;;57.67;2.43;;;;;;;;;;5071767;28;20463;-68
2023/05/03 03:43:15;;;;;;;57.63;2.50;;;;;;;;;;5071744;28;20494;-68
2023/05/03 03:45:42;;;;;;;57.33;2.70;;;;;;;;;;5071324;28;20505;-68
2023/05/03 03:48:09;;;;;;;57.50;2.40;;;;;;;;;;5071476;28;20451;-68
2023/05/03 03:50:37;;;;;;;57.27;2.67;;;;;;;;;;5071242;28;20478;-68
2023/05/03 03:53:05;;;;;;;57.57;2.43;;;;;;;;;;5071433;28;20450;-68
2023/05/03 03:55:32;;;;;;;57.77;2.60;;;;;;;;;;5071738;28;20538;-68
2023/05/03 03:57:59;;;;;;;57.00;2.53;;;;;;;;;;5071689;28;20447;-68
2023/05/03 04:00:28;;;;;;;57.07;2.50;;;;;;;;;;5071219;28;20478;-68
2023/05/03 04:02:55;;;;;;;57.43;3.13;;;;;;;;;;5071316;28;20489;-68
2023/05/03 04:05:22;;;;;;;57.17;2.30;;;;;;;;;;5071403;28;20542;-68
2023/05/03 04:07:49;;;;;;;57.80;2.70;;;;;;;;;;5071347;28;20459;-68
2023/05/03 04:10:16;;;;;;;57.37;2.40;;;;;;;;;;5071188;28;20474;-68
2023/05/03 04:12:43;;;;;;;57.20;2.50;;;;;;;;;;5071536;28;20435;-68
2023/05/03 04:15:12;;;;;;;57.47;2.50;;;;;;;;;;5071441;28;20443;-68
2023/05/03 04:17:40;;;;;;;57.17;2.50;;;;;;;;;;5071408;28;20823;-68
2023/05/03 04:20:09;;;;;;;57.63;2.90;;;;;;;;;;5070883;28;20545;-68
2023/05/03 04:22:37;;;;;;;57.43;2.30;;;;;;;;;;5071122;28;20479;-68
2023/05/03 04:25:07;;;;;;;57.40;2.40;;;;;;;;;;5071083;28;20469;-67
2023/05/03 04:27:34;;;;;;;58.63;3.17;;;;;;;;;;5071325;28;20459;-68
2023/05/03 04:30:01;;;;;;;57.43;2.80;;;;;;;;;;5070843;28;20482;-68
2023/05/03 04:32:28;;;;;;;57.37;2.50;;;;;;;;;;5071292;28;20936;-68
2023/05/03 04:34:57;;;;;;;57.37;2.60;;;;;;;;;;5071118;28;20443;-68
2023/05/03 04:37:24;;;;;;;57.70;3.07;;;;;;;;;;5071354;28;20542;-68
2023/05/03 04:39:51;;;;;;;57.57;2.40;;;;;;;;;;5071058;28;20843;-68
2023/05/03 04:42:19;;;;;;;57.07;2.50;;;;;;;;;;5071189;28;20799;-68
2023/05/03 04:44:46;;;;;;;56.97;2.50;;;;;;;;;;5071148;28;20447;-68
2023/05/03 04:47:13;;;;;;;57.40;4.00;;;;;;;;;;5070951;28;20457;-68
2023/05/03 04:49:40;;;;;;;57.13;2.50;;;;;;;;;;5070907;28;20832;-68
2023/05/03 04:52:09;;;;;;;57.27;2.60;;;;;;;;;;5071171;28;20443;-68
2023/05/03 04:54:36;;;;;;;57.00;2.40;;;;;;;;;;5071125;28;20474;-68
2023/05/03 04:57:03;;;;;;;56.57;2.70;;;;;;;;;;5072782;28;20449;-68
2023/05/03 04:59:30;;;;;;;57.60;3.03;;;;;;;;;;5074053;28;20471;-68
2023/05/03 05:01:57;;;;;;;56.90;2.33;;;;;;;;;;5074334;28;20490;-68
2023/05/03 05:04:25;;;;;;;57.40;2.50;;;;;;;;;;5074661;28;20445;-68
2023/05/03 05:06:53;;;;;;;57.27;2.30;;;;;;;;;;5074595;28;20463;-68
2023/05/03 05:09:25;;;;;;;57.73;2.90;;;;;;;;;;5074074;28;20471;-68
2023/05/03 05:11:52;;;;;;;57.17;2.60;;;;;;;;;;5074256;28;20501;-68
2023/05/03 05:14:19;;;;;;;57.17;2.40;;;;;;;;;;5074154;28;20557;-68
2023/05/03 05:16:46;;;;;;;57.40;2.30;;;;;;;;;;5074423;28;20478;-68
2023/05/03 05:19:14;;;;;;;57.23;2.70;;;;;;;;;;5073975;28;20788;-68
2023/05/03 05:21:41;;;;;;;57.27;2.70;;;;;;;;;;5074146;28;20485;-68
2023/05/03 05:24:08;;;;;;;58.10;4.23;;;;;;;;;;5073976;28;20467;-68
2023/05/03 05:26:37;;;;;;;57.27;2.50;;;;;;;;;;5074165;28;20554;-68
2023/05/03 05:29:04;;;;;;;58.27;4.07;;;;;;;;;;5073549;28;20443;-68
2023/05/03 05:31:31;;;;;;;57.50;2.47;;;;;;;;;;5074145;28;20456;-68
2023/05/03 05:33:58;;;;;;;57.27;2.30;;;;;;;;;;5074015;28;20475;-68
2023/05/03 05:36:26;;;;;;;57.53;3.10;;;;;;;;;;5073768;28;20448;-68
2023/05/03 05:38:53;;;;;;;56.93;2.50;;;;;;;;;;5073499;28;20546;-68
2023/05/03 05:41:20;;;;;;;56.97;3.13;;;;;;;;;;5073695;28;20475;-68
2023/05/03 05:43:48;;;;;;;56.67;2.30;;;;;;;;;;5073744;28;20479;-68
2023/05/03 05:46:15;;;;;;;57.37;3.03;;;;;;;;;;5073836;28;20496;-68
2023/05/03 05:48:43;;;;;;;57.20;2.50;;;;;;;;;;5073439;28;20444;-68
2023/05/03 05:51:10;;;;;;;56.77;2.30;;;;;;;;;;5073454;28;20467;-68
2023/05/03 05:53:37;;;;;;;56.63;2.40;;;;;;;;;;5073532;28;20444;-69
2023/05/03 05:56:05;;;;;;;58.07;4.50;;;;;;;;;;5073443;28;21089;-68
2023/05/03 05:58:32;;;;;;;56.97;2.23;;;;;;;;;;5073054;28;20447;-68
2023/05/03 06:01:02;;;;;;;57.37;2.20;;;;;;;;;;5073185;28;20475;-69
2023/05/03 06:03:30;;;;;;;57.20;2.40;;;;;;;;;;5073337;28;20498;-68
2023/05/03 06:05:57;;;;;;;57.17;2.40;;;;;;;;;;5073139;28;20970;-68
2023/05/03 06:08:25;;;;;;;56.93;2.50;;;;;;;;;;5072699;28;20443;-68
2023/05/03 06:10:52;;;;;;;57.30;2.40;;;;;;;;;;5072783;28;20463;-68
2023/05/03 06:13:19;;;;;;;59.17;4.47;;;;;;;;;;5073249;28;20947;-68
2023/05/03 06:15:46;;;;;;;57.00;2.53;;;;;;;;;;5073004;28;20477;-69
2023/05/03 06:18:15;;;;;;;57.37;2.30;;;;;;;;;;5072953;28;20451;-68
2023/05/03 06:20:42;;;;;;;57.80;2.30;;;;;;;;;;5072630;28;20471;-68
2023/05/03 06:23:10;;;;;;;57.20;2.27;;;;;;;;;;5072730;28;20483;-69
2023/05/03 06:25:37;;;;;;;57.37;2.57;;;;;;;;;;5072796;28;20836;-68
2023/05/03 06:28:04;;;;;;;56.83;2.30;;;;;;;;;;5072774;28;20450;-68
2023/05/03 06:30:31;;;;;;;56.77;2.27;;;;;;;;;;5072462;28;20463;-68
2023/05/03 06:32:58;;;;;;;56.97;2.70;;;;;;;;;;5072756;28;20443;-68
2023/05/03 06:35:27;;;;;;;57.13;2.40;;;;;;;;;;5072617;28;20827;-68
2023/05/03 06:37:54;;;;;;;57.17;2.30;;;;;;;;;;5072451;28;20453;-68
2023/05/03 06:40:23;;;;;;;58.90;2.67;;;;;;;;;;5072324;28;20469;-68
2023/05/03 06:42:50;;;;;;;57.27;2.27;;;;;;;;;;5072575;28;21030;-68
2023/05/03 06:45:18;;;;;;;57.03;2.30;;;;;;;;;;5072488;28;20447;-66
2023/05/03 06:47:45;;;;;;;57.07;2.20;;;;;;;;;;5072403;28;20824;-67
2023/05/03 06:50:12;;;;;;;57.57;2.77;;;;;;;;;;5071699;28;20467;-67
2023/05/03 06:52:41;;;;;;;57.33;2.30;;;;;;;;;;5072346;28;20447;-67
2023/05/03 06:55:08;;;;;;;57.27;2.50;;;;;;;;;;5072216;28;20914;-67
2023/05/03 06:57:35;;;;;;;56.87;2.10;;;;;;;;;;5072283;28;20501;-67
2023/05/03 07:00:06;;;;;;;57.27;2.50;;;;;;;;;;5071591;28;20475;-67
2023/05/03 07:02:33;;;;;;;57.03;2.30;;;;;;;;;;5071896;28;20475;-67
2023/05/03 07:05:00;;;;;;;57.23;2.43;;;;;;;;;;5071899;28;20453;-67
2023/05/03 07:07:27;;;;;;;59.30;2.60;;;;;;;;;;5071367;28;20952;-66
2023/05/03 07:09:55;;;;;;;56.93;2.23;;;;;;;;;;5071689;28;20474;-67
2023/05/03 07:12:26;;;;;;;57.50;2.93;;;;;;;;;;5071895;28;20447;-67
2023/05/03 07:14:53;;;;;;;58.47;2.60;;;;;;;;;;5071892;28;20501;-67
2023/05/03 07:17:21;;;;;;;57.17;2.20;;;;;;;;;;5071680;28;20440;-68
2023/05/03 07:19:49;;;;;;;57.40;2.60;;;;;;;;;;5070702;28;20471;-68
2023/05/03 07:22:16;;;;;;;56.90;2.20;;;;;;;;;;5071536;28;20473;-68
2023/05/03 07:24:43;;;;;;;57.77;2.90;;;;;;;;;;5070982;28;20455;-68
2023/05/03 07:27:11;;;;;;;57.20;2.20;;;;;;;;;;5071610;28;20439;-68
2023/05/03 07:29:38;;;;;;;57.87;3.13;;;;;;;;;;5071058;28;20806;-68
2023/05/03 07:32:06;;;;;;;56.97;2.40;;;;;;;;;;5071620;28;20443;-68
2023/05/03 07:34:33;;;;;;;56.93;2.23;;;;;;;;;;5071809;28;20455;-68
2023/05/03 07:37:00;;;;;;;57.13;2.37;;;;;;;;;;5071464;28;20448;-69
2023/05/03 07:39:27;;;;;;;57.30;2.80;;;;;;;;;;5071166;28;20466;-68
2023/05/03 07:41:54;;;;;;;57.13;2.20;;;;;;;;;;5072089;28;20440;-68
2023/05/03 07:44:23;;;;;;;59.50;3.23;;;;;;;;;;5071396;28;20483;-68
2023/05/03 07:46:50;;;;;;;57.07;2.03;;;;;;;;;;5071447;28;20534;-68
2023/05/03 07:49:17;;;;;;;57.43;2.50;;;;;;;;;;5071326;28;20447;-68
2023/05/03 07:51:44;;;;;;;57.10;2.30;;;;;;;;;;5071346;28;20478;-68
2023/05/03 07:54:12;;;;;;;57.03;2.30;;;;;;;;;;5071537;28;20440;-68
2023/05/03 07:56:39;;;;;;;61.73;4.83;;;;;;;;;;5070533;28;20451;-69
2023/05/03 07:59:06;;;;;;;56.97;2.03;;;;;;;;;;5070745;28;20448;-69
2023/05/03 08:01:34;;;;;;;72.97;4.10;;;;;;;;;;5071577;28;20451;-68
2023/05/03 08:04:02;;;;;;;60.40;3.80;;;;;;;;;;5071519;28;20855;-69
2023/05/03 08:06:30;;;;;;;57.90;3.17;;;;;;;;;;5071217;28;20451;-69
2023/05/03 08:08:57;;;;;;;56.87;2.20;;;;;;;;;;5071329;28;20467;-68
2023/05/03 08:11:25;;;;;;;57.07;2.53;;;;;;;;;;5071191;28;20554;-68
2023/05/03 08:13:52;;;;;;;57.60;2.80;;;;;;;;;;5071248;28;21000;-69
2023/05/03 08:16:19;;;;;;;56.97;2.00;;;;;;;;;;5071473;28;20447;-68
2023/05/03 08:18:47;;;;;;;57.40;2.80;;;;;;;;;;5071059;28;20443;-69
2023/05/03 08:21:16;;;;;;;56.97;2.27;;;;;;;;;;5071255;28;20477;-69
2023/05/03 08:23:43;;;;;;;56.93;2.30;;;;;;;;;;5070980;28;20502;-69
2023/05/03 08:26:12;;;;;;;57.27;2.50;;;;;;;;;;5071095;28;20818;-68
2023/05/03 08:28:39;;;;;;;57.13;2.67;;;;;;;;;;5070967;28;20447;-68
2023/05/03 08:31:07;;;;;;;57.07;2.17;;;;;;;;;;5073120;28;20463;-69
2023/05/03 08:33:34;;;;;;;57.07;2.17;;;;;;;;;;5075034;28;20450;-68
2023/05/03 08:36:02;;;;;;;57.77;2.93;;;;;;;;;;5075310;28;20560;-69
2023/05/03 08:38:30;;;;;;;57.70;2.97;;;;;;;;;;5074505;28;20947;-68
2023/05/03 08:40:58;;;;;;;58.00;2.77;;;;;;;;;;5074526;28;20566;-69
2023/05/03 08:43:28;;;;;;;59.07;2.70;;;;;;;;;;5074635;28;20494;-69
2023/05/03 08:45:55;;;;;;;58.00;3.63;;;;;;;;;;5074902;28;20443;-69
2023/05/03 08:48:22;;;;;;;58.37;2.87;;;;;;;;;;5074694;28;20447;-69
2023/05/03 08:50:52;;;;;;;58.17;2.73;;;;;;;;;;5074314;28;20544;-69
2023/05/03 08:53:21;;;;;;;57.30;2.80;;;;;;;;;;5074468;28;20447;-69
2023/05/03 08:55:48;;;;;;;57.03;2.20;;;;;;;;;;5074469;28;20457;-69
2023/05/03 08:58:15;;;;;;;56.97;2.50;;;;;;;;;;5074365;28;21138;-69
2023/05/03 09:00:43;;;;;;;57.90;3.27;;;;;;;;;;5074178;28;20477;-69
2023/05/03 09:03:11;;;;;;;57.00;2.23;;;;;;;;;;5074256;28;20598;-69
2023/05/03 09:05:39;;;;;;;57.20;2.57;;;;;;;;;;5074433;28;20469;-69
2023/05/03 09:08:08;;;;;;;57.20;2.50;;;;;;;;;;5074353;28;20455;-69
2023/05/03 09:10:39;;;;;;;57.40;2.30;;;;;;;;;;5074190;28;20835;-69
2023/05/03 09:13:06;;;;;;;57.20;2.40;;;;;;;;;;5074404;28;20447;-69
2023/05/03 09:15:34;;;;;;;57.00;2.20;;;;;;;;;;5074212;28;20826;-69
2023/05/03 09:18:08;;;;;;;57.97;3.23;;;;;;;;;;5073999;28;20823;-69
2023/05/03 09:20:35;;;;;;;57.40;3.00;;;;;;;;;;5073984;28;20899;-69
2023/05/03 09:23:02;;;;;;;56.97;2.40;;;;;;;;;;5074085;28;20448;-68
2023/05/03 09:25:41;;;;;;;57.17;2.40;;;;;;;;;;5073848;28;20463;-69
2023/05/03 09:28:09;;;;;;;56.87;2.20;;;;;;;;;;5073987;28;20831;-69
2023/05/03 09:30:36;;;;;;;56.93;2.30;;;;;;;;;;5074021;28;20843;-69
2023/05/03 09:33:03;;;;;;;57.60;3.30;;;;;;;;;;5073776;28;20451;-69
2023/05/03 09:35:31;;;;;;;61.20;2.60;;;;;;;;;;5073983;28;20516;-69
2023/05/03 09:37:58;;;;;;;56.93;2.20;;;;;;;;;;5073840;28;20462;-69
2023/05/03 09:40:25;;;;;;;57.23;2.80;;;;;;;;;;5073488;28;20493;-69
2023/05/03 09:43:15;;;;;;;57.40;2.60;;;;;;;;;;5073079;28;20448;-69
2023/05/03 09:45:42;;;;;;;56.77;2.40;;;;;;;;;;5073994;28;20487;-69
2023/05/03 09:48:09;;;;;;;58.37;2.90;;;;;;;;;;5073640;28;20443;-69
2023/05/03 09:50:37;;;;;;;57.17;2.40;;;;;;;;;;5073145;28;20471;-70
2023/05/03 09:53:04;;;;;;;57.03;2.23;;;;;;;;;;5073486;28;20448;-69
2023/05/03 09:55:33;;;;;;;56.97;2.50;;;;;;;;;;5073347;28;20490;-69
2023/05/03 09:58:01;;;;;;;57.37;2.50;;;;;;;;;;5073459;28;20452;-69
2023/05/03 10:00:32;;;;;;;56.87;2.40;;;;;;;;;;5073151;28;20467;-69
2023/05/03 10:03:01;;;;;;;58.80;2.47;;;;;;;;;;5073269;28;20940;-69
2023/05/03 10:05:31;;;;;;;57.27;2.70;;;;;;;;;;5073380;28;20490;-69
2023/05/03 10:08:00;;;;;;;56.67;2.20;;;;;;;;;;5073191;28;20454;-69
2023/05/03 10:10:29;;;;;;;57.40;2.70;;;;;;;;;;5072707;28;20566;-69
2023/05/03 10:12:56;;;;;;;57.00;2.30;;;;;;;;;;5073275;28;20449;-69
2023/05/03 10:15:24;;;;;;;56.83;2.23;;;;;;;;;;5073174;28;20479;-69
2023/05/03 10:17:53;;;;;;;57.07;2.90;;;;;;;;;;5073071;28;20823;-69
2023/05/03 10:20:25;;;;;;;56.47;2.13;;;;;;;;;;5072610;28;20467;-69
2023/05/03 10:23:08;;;;;;;58.03;2.70;;;;;;;;;;5072832;28;20450;-69
2023/05/03 10:25:36;;;;;;;58.97;3.03;;;;;;;;;;5072795;28;20459;-69
2023/05/03 10:28:03;;;;;;;57.97;2.70;;;;;;;;;;5072805;28;20443;-68
2023/05/03 10:30:33;;;;;;;57.40;2.70;;;;;;;;;;5072389;28;20467;-68
2023/05/03 10:33:21;;;;;;;57.73;3.10;;;;;;;;;;5072554;28;20496;-68
2023/05/03 10:35:51;;;;;;;57.50;2.90;;;;;;;;;;5072538;28;20455;-68
2023/05/03 10:38:21;;;;;;;58.40;3.03;;;;;;;;;;5072389;28;20939;-68
2023/05/03 10:40:48;;;;;;;60.77;4.17;;;;;;;;;;5072276;28;20478;-68
2023/05/03 10:43:34;;;;;;;57.13;2.90;;;;;;;;;;5072431;28;20450;-68
2023/05/03 10:46:02;;;;;;;58.20;4.00;;;;;;;;;;5072849;28;20886;-67
2023/05/03 10:48:31;;;;;;;57.13;2.50;;;;;;;;;;5072318;28;20451;-67
2023/05/03 10:50:58;;;;;;;56.93;3.00;;;;;;;;;;5072022;28;20463;-68
2023/05/03 10:53:36;;;;;;;56.87;2.37;;;;;;;;;;5071724;28;20452;-68
2023/05/03 10:56:04;;;;;;;57.10;2.40;;;;;;;;;;5071848;28;20525;-68
2023/05/03 10:58:34;;;;;;;57.17;2.30;;;;;;;;;;5071910;28;20546;-68
2023/05/03 11:01:01;;;;;;;58.43;3.43;;;;;;;;;;5072290;28;20941;-67
2023/05/03 11:03:40;;;;;;;57.70;3.57;;;;;;;;;;5072174;28;20452;-68
2023/05/03 11:06:07;;;;;;;57.30;2.57;;;;;;;;;;5072152;28;20461;-68
2023/05/03 11:08:36;;;;;;;56.83;2.60;;;;;;;;;;5071675;28;20443;-68
2023/05/03 11:11:07;;;;;;;56.77;2.00;;;;;;;;;;5072139;28;20562;-68
2023/05/03 11:13:34;;;;;;;57.47;2.90;;;;;;;;;;5072020;28;20951;-68
2023/05/03 11:16:01;;;;;;;57.00;2.60;;;;;;;;;;5071990;28;20443;-68
2023/05/03 11:18:29;;;;;;;57.00;2.50;;;;;;;;;;5071702;28;20453;-68
2023/05/03 11:20:57;;;;;;;58.33;2.83;;;;;;;;;;5071595;28;20559;-68
2023/05/03 11:23:25;;;;;;;57.27;2.80;;;;;;;;;;5071847;28;20961;-68
2023/05/03 11:25:52;;;;;;;56.80;1.97;;;;;;;;;;5071601;28;20494;-68
2023/05/03 11:28:20;;;;;;;56.57;2.00;;;;;;;;;;5071932;28;20455;-68
2023/05/03 11:30:47;;;;;;;57.20;2.37;;;;;;;;;;5071568;28;20517;-68
2023/05/03 11:33:14;;;;;;;57.40;2.60;;;;;;;;;;5071704;28;20447;-68
2023/05/03 11:35:42;;;;;;;57.50;2.37;;;;;;;;;;5071534;28;20447;-68
2023/05/03 11:38:10;;;;;;;57.27;3.00;;;;;;;;;;5071593;28;20447;-68
2023/05/03 11:40:38;;;;;;;57.97;2.83;;;;;;;;;;5071442;28;20463;-68
2023/05/03 11:43:06;;;;;;;56.50;2.50;;;;;;;;;;5071739;28;20451;-68
2023/05/03 11:45:40;;;;;;;56.80;1.90;;;;;;;;;;5071513;28;20479;-68
2023/05/03 11:48:07;;;;;;;59.50;2.77;;;;;;;;;;5071459;28;20868;-68
2023/05/03 11:50:45;;;;;;;57.50;3.10;;;;;;;;;;5071396;28;20464;-68
2023/05/03 11:53:13;;;;;;;56.90;2.67;;;;;;;;;;5071695;28;20451;-68
2023/05/03 11:55:41;;;;;;;57.60;2.63;;;;;;;;;;5071608;28;20531;-68
2023/05/03 11:58:09;;;;;;;57.60;3.80;;;;;;;;;;5071462;28;20477;-69
2023/05/03 12:00:37;;;;;;;57.40;2.87;;;;;;;;;;5071164;28;20474;-69
2023/05/03 12:03:04;;;;;;;56.90;2.40;;;;;;;;;;5071466;28;20534;-69
2023/05/03 12:05:32;;;;;;;57.10;2.80;;;;;;;;;;5072534;28;20523;-69
2023/05/03 12:07:59;;;;;;;57.67;3.33;;;;;;;;;;5075479;28;20458;-69
2023/05/03 12:10:32;;;;;;;57.20;2.33;;;;;;;;;;5075077;28;20467;-69
2023/05/03 12:13:00;;;;;;;56.37;1.90;;;;;;;;;;5075404;28;20451;-66
2023/05/03 12:15:28;;;;;;;60.90;2.70;;;;;;;;;;5075194;28;20462;-67
2023/05/03 12:17:56;;;;;;;56.70;2.30;;;;;;;;;;5075343;28;20451;-67
2023/05/03 12:20:24;;;;;;;57.77;3.00;;;;;;;;;;5075011;28;20474;-67
2023/05/03 12:22:51;;;;;;;56.60;2.43;;;;;;;;;;5075359;28;20755;-67
2023/05/03 12:25:19;;;;;;;56.43;2.10;;;;;;;;;;5074949;28;20494;-68
2023/05/03 12:27:48;;;;;;;57.40;2.53;;;;;;;;;;5075008;28;20447;-68
2023/05/03 12:30:15;;;;;;;57.33;2.67;;;;;;;;;;5074766;28;20837;-68
2023/05/03 12:32:42;;;;;;;57.07;2.30;;;;;;;;;;5074818;28;20448;-68
2023/05/03 12:35:09;;;;;;;56.77;2.47;;;;;;;;;;5074988;28;20823;-68
2023/05/03 12:37:37;;;;;;;57.00;2.20;;;;;;;;;;5074978;28;20478;-68
2023/05/03 12:40:04;;;;;;;57.07;2.53;;;;;;;;;;5074410;28;20467;-68
2023/05/03 12:42:31;;;;;;;57.40;3.00;;;;;;;;;;5074708;28;20454;-68
2023/05/03 12:45:00;;;;;;;57.03;2.80;;;;;;;;;;5074892;28;20505;-68
2023/05/03 12:47:27;;;;;;;60.60;3.50;;;;;;;;;;5074817;28;20456;-68
2023/05/03 12:49:54;;;;;;;57.40;2.40;;;;;;;;;;5074160;28;20932;-67
2023/05/03 12:52:21;;;;;;;57.53;2.30;;;;;;;;;;5074558;28;20973;-68
2023/05/03 12:54:49;;;;;;;57.37;2.50;;;;;;;;;;5074513;28;20453;-68
2023/05/03 12:57:16;;;;;;;59.63;2.20;;;;;;;;;;5074733;28;20546;-68
2023/05/03 12:59:43;;;;;;;56.57;2.27;;;;;;;;;;5074337;28;21088;-69
2023/05/03 13:02:12;;;;;;;56.57;2.30;;;;;;;;;;5074417;28;20534;-68
2023/05/03 13:04:39;;;;;;;56.70;2.20;;;;;;;;;;5074306;28;20578;-68
2023/05/03 13:07:06;;;;;;;56.93;2.03;;;;;;;;;;5074377;28;20474;-68
2023/05/03 13:09:34;;;;;;;56.80;2.33;;;;;;;;;;5073725;28;20518;-69
2023/05/03 13:12:01;;;;;;;56.60;2.40;;;;;;;;;;5074410;28;20454;-69
2023/05/03 13:14:28;;;;;;;59.90;2.60;;;;;;;;;;5074199;28;20812;-69
2023/05/03 13:16:55;;;;;;;56.70;2.23;;;;;;;;;;5073136;28;20448;-69
2023/05/03 13:19:24;;;;;;;56.47;1.87;;;;;;;;;;5073727;28;20463;-68
2023/05/03 13:21:51;;;;;;;57.67;2.10;;;;;;;;;;5074030;28;20821;-68
2023/05/03 13:24:18;;;;;;;57.20;2.30;;;;;;;;;;5073903;28;20468;-68
2023/05/03 13:26:45;;;;;;;56.80;2.40;;;;;;;;;;5073917;28;20443;-68
2023/05/03 13:29:12;;;;;;;56.77;2.50;;;;;;;;;;5073680;28;20447;-68
2023/05/03 13:31:41;;;;;;;57.40;3.07;;;;;;;;;;5073951;28;20538;-68
2023/05/03 13:34:08;;;;;;;57.93;2.73;;;;;;;;;;5073808;28;20439;-68
2023/05/03 13:36:36;;;;;;;56.80;2.20;;;;;;;;;;5073656;28;20432;-68
2023/05/03 13:39:05;;;;;;;57.30;2.63;;;;;;;;;;5073522;28;20471;-68
2023/05/03 13:41:32;;;;;;;57.20;2.37;;;;;;;;;;5073855;28;20447;-68
2023/05/03 13:44:00;;;;;;;57.67;2.30;;;;;;;;;;5073670;28;20454;-68
2023/05/03 13:46:27;;;;;;;57.67;2.77;;;;;;;;;;5073514;28;20454;-68
2023/05/03 13:48:55;;;;;;;57.50;2.63;;;;;;;;;;5073108;28;20534;-68
2023/05/03 13:51:23;;;;;;;57.17;2.60;;;;;;;;;;5073368;28;20557;-68
2023/05/03 13:53:51;;;;;;;56.77;2.20;;;;;;;;;;5073650;28;20444;-68
2023/05/03 13:56:18;;;;;;;57.77;3.27;;;;;;;;;;5073361;28;21018;-69
2023/05/03 13:58:45;;;;;;;57.97;2.53;;;;;;;;;;5073168;28;20454;-68
2023/05/03 14:01:14;;;;;;;57.10;2.47;;;;;;;;;;5073252;28;20467;-69
2023/05/03 14:03:41;;;;;;;57.10;2.23;;;;;;;;;;5073174;28;20459;-69
2023/05/03 14:06:08;;;;;;;57.07;2.10;;;;;;;;;;5073175;28;20948;-69
2023/05/03 14:08:35;;;;;;;56.80;2.13;;;;;;;;;;5073006;28;20457;-69
2023/05/03 14:11:03;;;;;;;57.00;2.17;;;;;;;;;;5073109;28;20477;-69
2023/05/03 14:13:30;;;;;;;57.40;2.77;;;;;;;;;;5073240;28;20447;-69
2023/05/03 14:15:58;;;;;;;56.97;2.40;;;;;;;;;;5072885;28;21008;-69
2023/05/03 14:18:25;;;;;;;56.70;2.60;;;;;;;;;;5072713;28;20452;-69
2023/05/03 14:20:52;;;;;;;57.20;2.93;;;;;;;;;;5072895;28;20475;-69
2023/05/03 14:23:19;;;;;;;57.10;2.20;;;;;;;;;;5073045;28;20443;-69
2023/05/03 14:25:46;;;;;;;56.70;2.10;;;;;;;;;;5072766;28;20455;-69
2023/05/03 14:28:15;;;;;;;57.00;2.47;;;;;;;;;;5072661;28;20466;-69
2023/05/03 14:30:42;;;;;;;56.70;2.27;;;;;;;;;;5072309;28;20471;-69
2023/05/03 14:33:10;;;;;;;56.30;1.70;;;;;;;;;;5072878;28;20458;-69
2023/05/03 14:35:38;;;;;;;61.83;3.87;;;;;;;;;;5072820;28;20510;-69